sensor_id;sensor_type;location;lat;lon;timestamp;pressure;altitude;pressure_sealevel;temperature;humidity
20105;BME280;10212;42.714;23.310;2022-11-25T00:04:47;94957.09;;;4.66;80.77
20105;BME280;10212;42.714;23.310;2022-11-25T00:09:47;94958.88;;;4.65;80.81
20105;BME280;10212;42.714;23.310;2022-11-25T00:14:48;94972.75;;;4.64;80.52
20105;BME280;10212;42.714;23.310;2022-11-25T00:19:48;94978.41;;;4.68;79.73
20105;BME280;10212;42.714;23.310;2022-11-25T00:24:50;94968.91;;;4.60;79.53
20105;BME280;10212;42.714;23.310;2022-11-25T00:29:50;94978.44;;;4.60;79.89
20105;BME280;10212;42.714;23.310;2022-11-25T00:34:51;94976.16;;;4.56;80.08
20105;BME280;10212;42.714;23.310;2022-11-25T00:39:51;94982.75;;;4.67;79.85
20105;BME280;10212;42.714;23.310;2022-11-25T00:44:52;94976.66;;;4.60;80.19
20105;BME280;10212;42.714;23.310;2022-11-25T00:49:53;94975.09;;;4.51;81.06
20105;BME280;10212;42.714;23.310;2022-11-25T00:54:54;94982.38;;;4.47;81.61
20105;BME280;10212;42.714;23.310;2022-11-25T00:59:54;94987.88;;;4.44;81.53
20105;BME280;10212;42.714;23.310;2022-11-25T01:04:55;94980.72;;;4.46;81.41
20105;BME280;10212;42.714;23.310;2022-11-25T01:09:55;94984.31;;;4.45;81.47
20105;BME280;10212;42.714;23.310;2022-11-25T01:14:56;94974.13;;;4.43;81.52
20105;BME280;10212;42.714;23.310;2022-11-25T01:19:56;94982.22;;;4.40;81.25
20105;BME280;10212;42.714;23.310;2022-11-25T01:24:57;94971.72;;;4.42;81.56
20105;BME280;10212;42.714;23.310;2022-11-25T01:29:57;94972.19;;;4.45;81.09
20105;BME280;10212;42.714;23.310;2022-11-25T01:34:58;94979.44;;;4.50;81.15
20105;BME280;10212;42.714;23.310;2022-11-25T01:39:59;94964.94;;;4.49;81.04
20105;BME280;10212;42.714;23.310;2022-11-25T01:50:23;94957.78;;;4.51;80.09
20105;BME280;10212;42.714;23.310;2022-11-25T01:55:28;94949.56;;;4.56;79.19
20105;BME280;10212;42.714;23.310;2022-11-25T02:00:30;94932.91;;;4.58;79.05
20105;BME280;10212;42.714;23.310;2022-11-25T02:05:58;94954.56;;;4.57;78.46
20105;BME280;10212;42.714;23.310;2022-11-25T02:10:56;94955.19;;;4.60;77.93
20105;BME280;10212;42.714;23.310;2022-11-25T02:15:57;94967.13;;;4.61;77.94
20105;BME280;10212;42.714;23.310;2022-11-25T02:20:58;94962.13;;;4.59;77.62
20105;BME280;10212;42.714;23.310;2022-11-25T02:25:58;94970.69;;;4.60;77.57
20105;BME280;10212;42.714;23.310;2022-11-25T02:30:59;94979.06;;;4.62;77.69
20105;BME280;10212;42.714;23.310;2022-11-25T02:36:17;94971.66;;;4.58;77.18
20105;BME280;10212;42.714;23.310;2022-11-25T02:46:27;94976.34;;;4.63;76.24
20105;BME280;10212;42.714;23.310;2022-11-25T02:51:29;94975.16;;;4.66;76.50
20105;BME280;10212;42.714;23.310;2022-11-25T02:56:32;94971.81;;;4.57;76.35
20105;BME280;10212;42.714;23.310;2022-11-25T03:01:34;94977.47;;;4.61;76.76
20105;BME280;10212;42.714;23.310;2022-11-25T03:06:35;94982.31;;;4.55;77.26
20105;BME280;10212;42.714;23.310;2022-11-25T03:11:36;94985.59;;;4.49;78.02
20105;BME280;10212;42.714;23.310;2022-11-25T03:16:55;94990.75;;;4.41;78.35
20105;BME280;10212;42.714;23.310;2022-11-25T03:21:56;94994.34;;;4.31;79.50
20105;BME280;10212;42.714;23.310;2022-11-25T03:26:56;94998.56;;;4.24;80.69
20105;BME280;10212;42.714;23.310;2022-11-25T03:31:57;95004.84;;;4.21;80.77
20105;BME280;10212;42.714;23.310;2022-11-25T03:36:57;95006.31;;;4.16;81.68
20105;BME280;10212;42.714;23.310;2022-11-25T03:41:58;95010.06;;;4.05;83.00
20105;BME280;10212;42.714;23.310;2022-11-25T03:46:59;95010.53;;;3.92;83.83
20105;BME280;10212;42.714;23.310;2022-11-25T03:51:59;95032.63;;;3.86;84.86
20105;BME280;10212;42.714;23.310;2022-11-25T03:57:00;95033.63;;;3.77;85.88
20105;BME280;10212;42.714;23.310;2022-11-25T04:02:01;95040.72;;;3.74;86.12
20105;BME280;10212;42.714;23.310;2022-11-25T04:07:01;95048.13;;;3.69;86.84
20105;BME280;10212;42.714;23.310;2022-11-25T04:12:02;95054.41;;;3.67;86.89
20105;BME280;10212;42.714;23.310;2022-11-25T04:17:22;95053.75;;;3.65;87.61
20105;BME280;10212;42.714;23.310;2022-11-25T04:22:22;95050.53;;;3.63;87.68
20105;BME280;10212;42.714;23.310;2022-11-25T04:27:23;95054.72;;;3.64;87.71
20105;BME280;10212;42.714;23.310;2022-11-25T04:32:24;95063.44;;;3.63;87.56
20105;BME280;10212;42.714;23.310;2022-11-25T04:37:24;95066.16;;;3.61;87.70
20105;BME280;10212;42.714;23.310;2022-11-25T04:42:25;95082.75;;;3.58;88.04
20105;BME280;10212;42.714;23.310;2022-11-25T04:47:32;95092.25;;;3.58;88.25
20105;BME280;10212;42.714;23.310;2022-11-25T04:52:32;95102.75;;;3.56;87.97
20105;BME280;10212;42.714;23.310;2022-11-25T04:57:33;95107.41;;;3.53;88.01
20105;BME280;10212;42.714;23.310;2022-11-25T05:02:33;95110.47;;;3.56;87.65
20105;BME280;10212;42.714;23.310;2022-11-25T05:07:34;95129.19;;;3.58;87.04
20105;BME280;10212;42.714;23.310;2022-11-25T05:12:35;95136.91;;;3.58;86.69
20105;BME280;10212;42.714;23.310;2022-11-25T05:17:36;95138.22;;;3.63;86.18
20105;BME280;10212;42.714;23.310;2022-11-25T05:22:38;95148.53;;;3.71;85.26
20105;BME280;10212;42.714;23.310;2022-11-25T05:27:38;95155.69;;;3.94;84.65
20105;BME280;10212;42.714;23.310;2022-11-25T05:32:39;95168.56;;;4.10;83.01
20105;BME280;10212;42.714;23.310;2022-11-25T05:37:39;95179.56;;;4.21;81.59
20105;BME280;10212;42.714;23.310;2022-11-25T05:42:40;95187.00;;;4.24;81.76
20105;BME280;10212;42.714;23.310;2022-11-25T05:47:41;95189.91;;;4.29;80.69
20105;BME280;10212;42.714;23.310;2022-11-25T05:52:41;95187.97;;;4.40;80.18
20105;BME280;10212;42.714;23.310;2022-11-25T05:57:42;95197.00;;;4.52;79.22
20105;BME280;10212;42.714;23.310;2022-11-25T06:02:49;95194.06;;;4.64;78.25
20105;BME280;10212;42.714;23.310;2022-11-25T06:07:50;95199.91;;;4.57;77.71
20105;BME280;10212;42.714;23.310;2022-11-25T06:12:53;95211.03;;;4.66;77.41
20105;BME280;10212;42.714;23.310;2022-11-25T06:17:54;95229.59;;;4.70;77.01
20105;BME280;10212;42.714;23.310;2022-11-25T06:22:56;95231.84;;;4.73;77.02
20105;BME280;10212;42.714;23.310;2022-11-25T06:27:57;95244.63;;;4.66;77.57
20105;BME280;10212;42.714;23.310;2022-11-25T06:32:58;95250.28;;;4.70;76.85
20105;BME280;10212;42.714;23.310;2022-11-25T06:37:59;95259.94;;;4.76;77.07
20105;BME280;10212;42.714;23.310;2022-11-25T06:42:59;95256.56;;;4.84;76.52
20105;BME280;10212;42.714;23.310;2022-11-25T06:48:00;95260.59;;;4.87;76.33
20105;BME280;10212;42.714;23.310;2022-11-25T06:53:01;95269.00;;;4.80;77.11
20105;BME280;10212;42.714;23.310;2022-11-25T06:58:01;95271.25;;;4.83;76.97
20105;BME280;10212;42.714;23.310;2022-11-25T07:03:02;95279.31;;;4.89;77.21
20105;BME280;10212;42.714;23.310;2022-11-25T07:08:03;95265.59;;;4.97;76.41
20105;BME280;10212;42.714;23.310;2022-11-25T07:13:03;95277.06;;;4.94;76.48
20105;BME280;10212;42.714;23.310;2022-11-25T07:18:04;95280.63;;;4.85;76.08
20105;BME280;10212;42.714;23.310;2022-11-25T07:23:04;95281.28;;;4.78;76.69
20105;BME280;10212;42.714;23.310;2022-11-25T07:28:05;95293.03;;;4.73;76.85
20105;BME280;10212;42.714;23.310;2022-11-25T07:33:08;95286.28;;;4.63;77.20
20105;BME280;10212;42.714;23.310;2022-11-25T07:38:09;95294.66;;;4.49;78.41
20105;BME280;10212;42.714;23.310;2022-11-25T07:43:10;95294.97;;;4.45;78.68
20105;BME280;10212;42.714;23.310;2022-11-25T07:48:10;95305.78;;;4.49;78.13
20105;BME280;10212;42.714;23.310;2022-11-25T07:53:11;95307.25;;;4.52;77.96
20105;BME280;10212;42.714;23.310;2022-11-25T07:58:17;95305.78;;;4.74;77.24
20105;BME280;10212;42.714;23.310;2022-11-25T08:03:20;95308.06;;;4.86;76.27
20105;BME280;10212;42.714;23.310;2022-11-25T08:08:51;95313.72;;;4.98;75.53
20105;BME280;10212;42.714;23.310;2022-11-25T08:13:55;95332.28;;;5.10;74.59
20105;BME280;10212;42.714;23.310;2022-11-25T08:18:59;95315.81;;;5.02;74.79
20105;BME280;10212;42.714;23.310;2022-11-25T08:24:00;95327.94;;;5.18;73.55
20105;BME280;10212;42.714;23.310;2022-11-25T08:29:04;95329.72;;;5.10;73.70
20105;BME280;10212;42.714;23.310;2022-11-25T08:34:05;95326.81;;;5.13;74.04
20105;BME280;10212;42.714;23.310;2022-11-25T08:39:06;95341.19;;;5.32;73.67
20105;BME280;10212;42.714;23.310;2022-11-25T08:44:09;95328.09;;;5.34;73.88
20105;BME280;10212;42.714;23.310;2022-11-25T08:49:12;95333.56;;;5.47;73.10
20105;BME280;10212;42.714;23.310;2022-11-25T08:54:12;95323.50;;;5.61;72.53
20105;BME280;10212;42.714;23.310;2022-11-25T08:59:13;95327.56;;;5.55;72.28
20105;BME280;10212;42.714;23.310;2022-11-25T09:04:14;95333.69;;;5.62;71.77
20105;BME280;10212;42.714;23.310;2022-11-25T09:09:14;95329.00;;;5.58;70.58
20105;BME280;10212;42.714;23.310;2022-11-25T09:14:15;95331.91;;;5.63;71.16
20105;BME280;10212;42.714;23.310;2022-11-25T09:19:19;95334.19;;;5.66;70.99
20105;BME280;10212;42.714;23.310;2022-11-25T09:24:21;95343.19;;;5.87;70.89
20105;BME280;10212;42.714;23.310;2022-11-25T09:29:21;95330.66;;;5.99;70.37
20105;BME280;10212;42.714;23.310;2022-11-25T09:34:22;95337.38;;;5.76;70.05
20105;BME280;10212;42.714;23.310;2022-11-25T09:39:23;95340.75;;;5.85;70.67
20105;BME280;10212;42.714;23.310;2022-11-25T09:44:42;95335.25;;;6.29;69.00
20105;BME280;10212;42.714;23.310;2022-11-25T09:55:23;95336.06;;;5.89;70.13
20105;BME280;10212;42.714;23.310;2022-11-25T10:00:31;95342.19;;;5.88;70.07
20105;BME280;10212;42.714;23.310;2022-11-25T10:05:40;95323.91;;;5.89;70.02
20105;BME280;10212;42.714;23.310;2022-11-25T10:10:47;95337.63;;;5.98;69.71
20105;BME280;10212;42.714;23.310;2022-11-25T10:15:51;95337.50;;;5.91;69.98
20105;BME280;10212;42.714;23.310;2022-11-25T10:20:53;95335.19;;;6.05;69.85
20105;BME280;10212;42.714;23.310;2022-11-25T10:25:57;95330.66;;;6.07;69.08
20105;BME280;10212;42.714;23.310;2022-11-25T10:41:18;95326.13;;;6.09;67.85
20105;BME280;10212;42.714;23.310;2022-11-25T10:51:36;95330.44;;;6.25;67.12
20105;BME280;10212;42.714;23.310;2022-11-25T11:01:43;95339.47;;;6.30;68.16
20105;BME280;10212;42.714;23.310;2022-11-25T11:06:46;95335.50;;;6.42;67.87
20105;BME280;10212;42.714;23.310;2022-11-25T11:11:49;95336.88;;;6.30;67.68
20105;BME280;10212;42.714;23.310;2022-11-25T11:16:54;95340.06;;;6.08;68.44
20105;BME280;10212;42.714;23.310;2022-11-25T11:21:56;95348.97;;;5.97;70.02
20105;BME280;10212;42.714;23.310;2022-11-25T11:27:20;95348.84;;;5.74;71.47
20105;BME280;10212;42.714;23.310;2022-11-25T11:32:24;95368.44;;;5.76;72.03
20105;BME280;10212;42.714;23.310;2022-11-25T11:37:42;95345.00;;;5.61;72.97
20105;BME280;10212;42.714;23.310;2022-11-25T11:43:16;95359.34;;;5.81;72.73
20105;BME280;10212;42.714;23.310;2022-11-25T11:49:04;95345.13;;;5.85;72.08
20105;BME280;10212;42.714;23.310;2022-11-25T11:54:33;95363.22;;;5.85;71.55
20105;BME280;10212;42.714;23.310;2022-11-25T11:59:45;95360.03;;;5.74;71.78
20105;BME280;10212;42.714;23.310;2022-11-25T12:15:36;95366.13;;;5.90;72.28
20105;BME280;10212;42.714;23.310;2022-11-25T12:25:43;95363.19;;;5.93;72.38
20105;BME280;10212;42.714;23.310;2022-11-25T12:30:57;95361.59;;;5.92;71.70
20105;BME280;10212;42.714;23.310;2022-11-25T12:36:29;95375.53;;;5.83;71.95
20105;BME280;10212;42.714;23.310;2022-11-25T12:41:44;95361.47;;;5.85;72.20
20105;BME280;10212;42.714;23.310;2022-11-25T12:46:49;95363.53;;;5.90;71.78
20105;BME280;10212;42.714;23.310;2022-11-25T13:08:14;95356.91;;;5.87;71.28
20105;BME280;10212;42.714;23.310;2022-11-25T13:18:29;95343.81;;;5.81;71.07
20105;BME280;10212;42.714;23.310;2022-11-25T13:23:44;95339.63;;;5.79;71.31
20105;BME280;10212;42.714;23.310;2022-11-25T13:28:45;95346.41;;;5.81;71.51
20105;BME280;10212;42.714;23.310;2022-11-25T13:48:56;95356.44;;;5.75;70.63
20105;BME280;10212;42.714;23.310;2022-11-25T13:53:59;95352.75;;;5.70;71.02
20105;BME280;10212;42.714;23.310;2022-11-25T14:04:13;95367.16;;;5.64;70.74
20105;BME280;10212;42.714;23.310;2022-11-25T14:14:49;95386.91;;;5.48;71.35
20105;BME280;10212;42.714;23.310;2022-11-25T14:20:08;95382.72;;;5.39;71.67
20105;BME280;10212;42.714;23.310;2022-11-25T14:25:25;95391.28;;;5.31;72.30
20105;BME280;10212;42.714;23.310;2022-11-25T14:30:26;95389.97;;;5.18;73.03
20105;BME280;10212;42.714;23.310;2022-11-25T14:35:40;95402.75;;;5.12;72.99
20105;BME280;10212;42.714;23.310;2022-11-25T14:46:11;95394.00;;;4.96;74.22
20105;BME280;10212;42.714;23.310;2022-11-25T14:51:14;95415.97;;;4.92;74.74
20105;BME280;10212;42.714;23.310;2022-11-25T14:56:21;95410.63;;;4.85;75.13
20105;BME280;10212;42.714;23.310;2022-11-25T15:01:28;95416.94;;;4.82;75.87
20105;BME280;10212;42.714;23.310;2022-11-25T15:06:37;95408.84;;;4.77;76.07
20105;BME280;10212;42.714;23.310;2022-11-25T15:11:38;95422.88;;;4.75;76.38
20105;BME280;10212;42.714;23.310;2022-11-25T15:16:39;95418.84;;;4.72;76.68
20105;BME280;10212;42.714;23.310;2022-11-25T15:21:42;95407.19;;;4.68;76.96
20105;BME280;10212;42.714;23.310;2022-11-25T15:26:50;95420.13;;;4.68;77.00
20105;BME280;10212;42.714;23.310;2022-11-25T15:31:51;95422.03;;;4.66;77.45
20105;BME280;10212;42.714;23.310;2022-11-25T15:36:52;95422.19;;;4.64;77.60
20105;BME280;10212;42.714;23.310;2022-11-25T15:42:05;95427.53;;;4.63;76.79
20105;BME280;10212;42.714;23.310;2022-11-25T15:47:23;95438.81;;;4.62;76.36
20105;BME280;10212;42.714;23.310;2022-11-25T15:52:25;95443.97;;;4.62;75.85
20105;BME280;10212;42.714;23.310;2022-11-25T15:57:35;95441.38;;;4.62;75.71
20105;BME280;10212;42.714;23.310;2022-11-25T16:07:39;95435.88;;;4.56;75.09
20105;BME280;10212;42.714;23.310;2022-11-25T16:18:26;95452.38;;;4.55;74.22
20105;BME280;10212;42.714;23.310;2022-11-25T16:23:33;95443.97;;;4.53;74.19
20105;BME280;10212;42.714;23.310;2022-11-25T16:28:34;95460.44;;;4.52;74.27
20105;BME280;10212;42.714;23.310;2022-11-25T16:33:35;95456.09;;;4.53;73.92
20105;BME280;10212;42.714;23.310;2022-11-25T16:38:35;95460.44;;;4.52;74.00
20105;BME280;10212;42.714;23.310;2022-11-25T16:43:36;95468.34;;;4.51;74.06
20105;BME280;10212;42.714;23.310;2022-11-25T16:48:38;95459.09;;;4.48;73.67
20105;BME280;10212;42.714;23.310;2022-11-25T16:53:39;95467.84;;;4.47;73.97
20105;BME280;10212;42.714;23.310;2022-11-25T16:58:41;95464.59;;;4.45;74.08
20105;BME280;10212;42.714;23.310;2022-11-25T17:03:43;95470.06;;;4.42;74.50
20105;BME280;10212;42.714;23.310;2022-11-25T17:08:43;95478.09;;;4.39;74.48
20105;BME280;10212;42.714;23.310;2022-11-25T17:13:46;95476.97;;;4.33;74.44
20105;BME280;10212;42.714;23.310;2022-11-25T17:18:51;95473.41;;;4.34;74.24
20105;BME280;10212;42.714;23.310;2022-11-25T17:23:53;95474.53;;;4.31;74.57
20105;BME280;10212;42.714;23.310;2022-11-25T17:28:57;95479.03;;;4.29;74.92
20105;BME280;10212;42.714;23.310;2022-11-25T17:33:58;95478.38;;;4.27;74.66
20105;BME280;10212;42.714;23.310;2022-11-25T17:38:58;95482.22;;;4.23;75.21
20105;BME280;10212;42.714;23.310;2022-11-25T17:43:59;95488.38;;;4.22;75.50
20105;BME280;10212;42.714;23.310;2022-11-25T17:49:00;95495.44;;;4.20;75.58
20105;BME280;10212;42.714;23.310;2022-11-25T17:54:00;95492.34;;;4.16;76.13
20105;BME280;10212;42.714;23.310;2022-11-25T17:59:04;95502.16;;;4.13;76.00
20105;BME280;10212;42.714;23.310;2022-11-25T18:04:24;95506.97;;;4.07;76.88
20105;BME280;10212;42.714;23.310;2022-11-25T18:09:25;95511.44;;;3.97;77.19
20105;BME280;10212;42.714;23.310;2022-11-25T18:14:31;95507.69;;;3.91;77.48
20105;BME280;10212;42.714;23.310;2022-11-25T18:19:33;95515.25;;;3.93;77.64
20105;BME280;10212;42.714;23.310;2022-11-25T18:24:33;95506.59;;;3.94;77.82
20105;BME280;10212;42.714;23.310;2022-11-25T18:29:37;95511.91;;;3.92;77.94
20105;BME280;10212;42.714;23.310;2022-11-25T18:34:38;95513.34;;;3.95;78.40
20105;BME280;10212;42.714;23.310;2022-11-25T18:39:38;95515.56;;;3.90;78.29
20105;BME280;10212;42.714;23.310;2022-11-25T18:44:39;95515.25;;;3.93;78.70
20105;BME280;10212;42.714;23.310;2022-11-25T18:49:42;95520.72;;;3.90;78.59
20105;BME280;10212;42.714;23.310;2022-11-25T18:54:43;95519.28;;;3.87;79.00
20105;BME280;10212;42.714;23.310;2022-11-25T18:59:44;95524.13;;;3.90;78.86
20105;BME280;10212;42.714;23.310;2022-11-25T19:04:44;95531.72;;;3.92;78.89
20105;BME280;10212;42.714;23.310;2022-11-25T19:09:45;95525.59;;;3.93;78.60
20105;BME280;10212;42.714;23.310;2022-11-25T19:14:47;95531.56;;;3.93;78.77
20105;BME280;10212;42.714;23.310;2022-11-25T19:19:49;95534.97;;;3.94;78.99
20105;BME280;10212;42.714;23.310;2022-11-25T19:24:49;95540.13;;;3.94;78.90
20105;BME280;10212;42.714;23.310;2022-11-25T19:29:51;95539.75;;;3.89;79.38
20105;BME280;10212;42.714;23.310;2022-11-25T19:35:04;95545.06;;;3.87;79.28
20105;BME280;10212;42.714;23.310;2022-11-25T19:40:14;95556.34;;;3.86;79.50
20105;BME280;10212;42.714;23.310;2022-11-25T19:45:17;95560.34;;;3.80;80.09
20105;BME280;10212;42.714;23.310;2022-11-25T19:50:21;95559.84;;;3.77;80.64
20105;BME280;10212;42.714;23.310;2022-11-25T19:55:26;95559.59;;;3.70;81.21
20105;BME280;10212;42.714;23.310;2022-11-25T20:00:32;95553.78;;;3.68;81.33
20105;BME280;10212;42.714;23.310;2022-11-25T20:05:36;95555.03;;;3.64;81.51
20105;BME280;10212;42.714;23.310;2022-11-25T20:10:37;95558.59;;;3.63;81.28
20105;BME280;10212;42.714;23.310;2022-11-25T20:15:39;95569.69;;;3.63;81.87
20105;BME280;10212;42.714;23.310;2022-11-25T20:20:41;95576.63;;;3.63;81.76
20105;BME280;10212;42.714;23.310;2022-11-25T20:25:46;95573.53;;;3.59;81.98
20105;BME280;10212;42.714;23.310;2022-11-25T20:30:48;95588.50;;;3.55;82.24
20105;BME280;10212;42.714;23.310;2022-11-25T20:35:52;95583.03;;;3.58;82.14
20105;BME280;10212;42.714;23.310;2022-11-25T20:40:57;95582.66;;;3.53;81.90
20105;BME280;10212;42.714;23.310;2022-11-25T20:46:00;95591.06;;;3.55;81.88
20105;BME280;10212;42.714;23.310;2022-11-25T20:51:01;95592.69;;;3.56;82.18
20105;BME280;10212;42.714;23.310;2022-11-25T20:56:02;95595.56;;;3.53;82.55
20105;BME280;10212;42.714;23.310;2022-11-25T21:01:04;95598.28;;;3.52;82.69
20105;BME280;10212;42.714;23.310;2022-11-25T21:06:20;95608.06;;;3.48;82.91
20105;BME280;10212;42.714;23.310;2022-11-25T21:11:23;95616.53;;;3.40;82.86
20105;BME280;10212;42.714;23.310;2022-11-25T21:16:27;95622.78;;;3.37;82.97
20105;BME280;10212;42.714;23.310;2022-11-25T21:21:30;95626.31;;;3.36;82.94
20105;BME280;10212;42.714;23.310;2022-11-25T21:26:32;95627.97;;;3.28;83.34
20105;BME280;10212;42.714;23.310;2022-11-25T21:31:33;95639.69;;;3.22;84.37
20105;BME280;10212;42.714;23.310;2022-11-25T21:36:33;95646.38;;;3.15;84.50
20105;BME280;10212;42.714;23.310;2022-11-25T21:41:34;95659.81;;;3.08;84.74
20105;BME280;10212;42.714;23.310;2022-11-25T21:46:35;95664.72;;;3.01;85.48
20105;BME280;10212;42.714;23.310;2022-11-25T21:51:36;95674.50;;;2.98;85.84
20105;BME280;10212;42.714;23.310;2022-11-25T21:56:36;95677.50;;;2.93;85.92
20105;BME280;10212;42.714;23.310;2022-11-25T22:01:38;95678.28;;;2.94;86.23
20105;BME280;10212;42.714;23.310;2022-11-25T22:06:38;95674.38;;;2.89;85.88
20105;BME280;10212;42.714;23.310;2022-11-25T22:11:47;95676.44;;;2.86;86.23
20105;BME280;10212;42.714;23.310;2022-11-25T22:16:48;95674.53;;;2.78;86.74
20105;BME280;10212;42.714;23.310;2022-11-25T22:21:49;95685.66;;;2.79;86.07
20105;BME280;10212;42.714;23.310;2022-11-25T22:26:51;95689.19;;;2.77;86.27
20105;BME280;10212;42.714;23.310;2022-11-25T22:31:52;95702.47;;;2.73;86.59
20105;BME280;10212;42.714;23.310;2022-11-25T22:36:53;95692.19;;;2.63;87.33
20105;BME280;10212;42.714;23.310;2022-11-25T22:41:57;95693.03;;;2.53;87.31
20105;BME280;10212;42.714;23.310;2022-11-25T22:47:01;95695.31;;;2.57;86.66
20105;BME280;10212;42.714;23.310;2022-11-25T22:52:02;95686.22;;;2.62;86.93
20105;BME280;10212;42.714;23.310;2022-11-25T22:57:03;95688.94;;;2.61;86.96
20105;BME280;10212;42.714;23.310;2022-11-25T23:02:03;95699.66;;;2.66;86.44
20105;BME280;10212;42.714;23.310;2022-11-25T23:07:10;95701.94;;;2.79;86.07
20105;BME280;10212;42.714;23.310;2022-11-25T23:12:15;95697.03;;;2.86;85.78
20105;BME280;10212;42.714;23.310;2022-11-25T23:17:22;95700.44;;;2.86;84.78
20105;BME280;10212;42.714;23.310;2022-11-25T23:22:23;95690.66;;;2.90;84.99
20105;BME280;10212;42.714;23.310;2022-11-25T23:27:24;95688.09;;;2.90;84.55
20105;BME280;10212;42.714;23.310;2022-11-25T23:32:24;95689.44;;;2.84;84.71
20105;BME280;10212;42.714;23.310;2022-11-25T23:37:27;95688.78;;;2.82;84.76
20105;BME280;10212;42.714;23.310;2022-11-25T23:42:29;95686.75;;;2.86;84.82
20105;BME280;10212;42.714;23.310;2022-11-25T23:47:30;95682.25;;;2.88;84.21
20105;BME280;10212;42.714;23.310;2022-11-25T23:52:30;95692.19;;;2.83;84.32
20105;BME280;10212;42.714;23.310;2022-11-25T23:57:32;95684.06;;;2.77;83.27
